N531RC KHEF-KACK
Flight info
| Callsign | N531RC |
|---|---|
| Flight time | 1h 24m |
| Altitude | 37000 |
| Route | HIICH2 WOOLY DCT SWANN DCT BROSS Q419 RBV Q430 KYSKY DEEPO2 |
| Aircraft | P180/L-L/C |
Departure
| Time | 2026-04-22 02:35 |
|---|---|
| Airport | Manassas Regional Airport/Harry P. Davis Field (KHEF) |
Arrival
| Time | 2026-04-22 04:00 |
|---|---|
| Airport | Nantucket Memorial Airport (KACK) |
| Time | Latitude | Longitude | Altitude | Speed | Heading |
|---|---|---|---|---|---|
| 2026-04-22 02:21 | 38.72821 | -77.51428 | 195 ft | 0 kts | 60° |
| 2026-04-22 02:26 | 38.72815 | -77.51442 | 199 ft | 0 kts | 60° |
| 2026-04-22 02:27 | 38.72816 | -77.51441 | 200 ft | 0 kts | 61° |
| 2026-04-22 02:27 | 38.72820 | -77.51438 | 203 ft | 1 kts | 26° |
| 2026-04-22 02:28 | 38.72830 | -77.51443 | 205 ft | 2 kts | 322° |
| 2026-04-22 02:28 | 38.72836 | -77.51460 | 202 ft | 3 kts | 274° |
| 2026-04-22 02:28 | 38.72825 | -77.51481 | 195 ft | 4 kts | 218° |
| 2026-04-22 02:28 | 38.72801 | -77.51517 | 197 ft | 6 kts | 239° |
| 2026-04-22 02:29 | 38.72775 | -77.51576 | 197 ft | 9 kts | 240° |
| 2026-04-22 02:29 | 38.72736 | -77.51661 | 197 ft | 13 kts | 239° |
| 2026-04-22 02:29 | 38.72762 | -77.51710 | 193 ft | 8 kts | 333° |
| 2026-04-22 02:29 | 38.72809 | -77.51758 | 194 ft | 9 kts | 287° |
| 2026-04-22 02:30 | 38.72806 | -77.51780 | 197 ft | 0 kts | 245° |
| 2026-04-22 02:32 | 38.72805 | -77.51784 | 197 ft | 2 kts | 243° |
| 2026-04-22 02:32 | 38.72788 | -77.51824 | 194 ft | 8 kts | 241° |
| 2026-04-22 02:33 | 38.72751 | -77.51863 | 195 ft | 7 kts | 157° |
| 2026-04-22 02:33 | 38.72746 | -77.51860 | 195 ft | 0 kts | 154° |
| 2026-04-22 02:33 | 38.72733 | -77.51851 | 195 ft | 16 kts | 153° |
| 2026-04-22 02:34 | 38.72424 | -77.51632 | 197 ft | 81 kts | 151° |
| 2026-04-22 02:34 | 38.71895 | -77.51255 | 197 ft | 116 kts | 151° |
| 2026-04-22 02:34 | 38.71699 | -77.51117 | 211 ft | 122 kts | 151° |
| 2026-04-22 02:34 | 38.71302 | -77.50850 | 539 ft | 111 kts | 153° |
| 2026-04-22 02:35 | 38.70866 | -77.50575 | 698 ft | 119 kts | 154° |
| 2026-04-22 02:35 | 38.70507 | -77.50352 | 814 ft | 124 kts | 155° |
| 2026-04-22 02:35 | 38.70209 | -77.50191 | 984 ft | 121 kts | 161° |
| 2026-04-22 02:35 | 38.69881 | -77.50071 | 1201 ft | 117 kts | 172° |
| 2026-04-22 02:36 | 38.69375 | -77.50031 | 1496 ft | 111 kts | 189° |
| 2026-04-22 02:36 | 38.68817 | -77.50219 | 1889 ft | 101 kts | 201° |
| 2026-04-22 02:36 | 38.68495 | -77.50392 | 2108 ft | 100 kts | 207° |
| 2026-04-22 02:36 | 38.68031 | -77.50778 | 2445 ft | 99 kts | 217° |
| 2026-04-22 02:37 | 38.67597 | -77.51362 | 2800 ft | 100 kts | 229° |
| 2026-04-22 02:37 | 38.67231 | -77.52116 | 3151 ft | 102 kts | 234° |
| 2026-04-22 02:37 | 38.67049 | -77.52487 | 3309 ft | 103 kts | 234° |
| 2026-04-22 02:37 | 38.66840 | -77.52913 | 3522 ft | 102 kts | 235° |
| 2026-04-22 02:38 | 38.66471 | -77.53671 | 3869 ft | 102 kts | 237° |
| 2026-04-22 02:38 | 38.66192 | -77.54471 | 4214 ft | 102 kts | 252° |
| 2026-04-22 02:38 | 38.66101 | -77.55390 | 4538 ft | 106 kts | 267° |
| 2026-04-22 02:38 | 38.66222 | -77.56328 | 4891 ft | 108 kts | 283° |
| 2026-04-22 02:39 | 38.66550 | -77.57181 | 5230 ft | 110 kts | 298° |
| 2026-04-22 02:39 | 38.67079 | -77.57913 | 5419 ft | 125 kts | 313° |
| 2026-04-22 02:39 | 38.67881 | -77.58448 | 5696 ft | 134 kts | 333° |
| 2026-04-22 02:39 | 38.68836 | -77.58592 | 6014 ft | 145 kts | 352° |
| 2026-04-22 02:40 | 38.69913 | -77.58185 | 6048 ft | 174 kts | 22° |
| 2026-04-22 02:40 | 38.70591 | -77.57592 | 6230 ft | 175 kts | 27° |
| 2026-04-22 02:40 | 38.71582 | -77.56720 | 6643 ft | 176 kts | 24° |
| 2026-04-22 02:40 | 38.72387 | -77.56053 | 6832 ft | 189 kts | 24° |
| 2026-04-22 02:41 | 38.73506 | -77.55113 | 7380 ft | 185 kts | 24° |
| 2026-04-22 02:41 | 38.74561 | -77.54217 | 7916 ft | 181 kts | 24° |
| 2026-04-22 02:41 | 38.75610 | -77.53333 | 8423 ft | 180 kts | 23° |
| 2026-04-22 02:41 | 38.76621 | -77.52479 | 8943 ft | 177 kts | 22° |
| 2026-04-22 02:42 | 38.77653 | -77.51606 | 9495 ft | 174 kts | 21° |
| 2026-04-22 02:42 | 38.78657 | -77.50757 | 9996 ft | 172 kts | 21° |
| 2026-04-22 02:42 | 38.79683 | -77.49900 | 10271 ft | 182 kts | 21° |
| 2026-04-22 02:42 | 38.80733 | -77.49007 | 10736 ft | 181 kts | 22° |
| 2026-04-22 02:43 | 38.81761 | -77.48127 | 11212 ft | 179 kts | 22° |
| 2026-04-22 02:43 | 38.82810 | -77.47240 | 11649 ft | 178 kts | 21° |
| 2026-04-22 02:43 | 38.83833 | -77.46376 | 12085 ft | 178 kts | 22° |
| 2026-04-22 02:43 | 38.84871 | -77.45496 | 12542 ft | 177 kts | 22° |
| 2026-04-22 02:44 | 38.85887 | -77.44635 | 12983 ft | 176 kts | 22° |
| 2026-04-22 02:44 | 38.86737 | -77.43915 | 13344 ft | 175 kts | 22° |
| 2026-04-22 02:44 | 38.87383 | -77.43367 | 13619 ft | 175 kts | 22° |
| 2026-04-22 02:44 | 38.88114 | -77.42748 | 13934 ft | 174 kts | 22° |
| 2026-04-22 02:45 | 38.88989 | -77.42006 | 14263 ft | 174 kts | 22° |
| 2026-04-22 02:45 | 38.89994 | -77.41155 | 14614 ft | 174 kts | 22° |
| 2026-04-22 02:45 | 38.90941 | -77.40351 | 14941 ft | 175 kts | 22° |
| 2026-04-22 02:45 | 38.91641 | -77.39756 | 15176 ft | 175 kts | 22° |
| 2026-04-22 02:46 | 38.92426 | -77.39090 | 15441 ft | 175 kts | 22° |
| 2026-04-22 02:46 | 38.93367 | -77.38292 | 15768 ft | 176 kts | 22° |
| 2026-04-22 02:46 | 38.94354 | -77.37452 | 16129 ft | 176 kts | 22° |
| 2026-04-22 02:46 | 38.95376 | -77.36583 | 16518 ft | 176 kts | 22° |
| 2026-04-22 02:47 | 38.96400 | -77.35712 | 16887 ft | 177 kts | 22° |
| 2026-04-22 02:47 | 38.97495 | -77.34794 | 16921 ft | 197 kts | 23° |
| 2026-04-22 02:47 | 38.98665 | -77.33799 | 17113 ft | 204 kts | 24° |
| 2026-04-22 02:47 | 38.99822 | -77.32800 | 17462 ft | 204 kts | 24° |
| 2026-04-22 02:48 | 39.00897 | -77.31883 | 17789 ft | 204 kts | 24° |
| 2026-04-22 02:48 | 39.01054 | -77.31749 | 17836 ft | 204 kts | 24° |
| 2026-04-22 02:48 | 39.01471 | -77.31396 | 17963 ft | 204 kts | 24° |
| 2026-04-22 02:48 | 39.02313 | -77.30680 | 18212 ft | 204 kts | 24° |
| 2026-04-22 02:49 | 39.03429 | -77.29728 | 18543 ft | 205 kts | 24° |
| 2026-04-22 02:49 | 39.04509 | -77.28808 | 18867 ft | 204 kts | 24° |
| 2026-04-22 02:49 | 39.05693 | -77.27801 | 19212 ft | 204 kts | 24° |
| 2026-04-22 02:49 | 39.06866 | -77.26801 | 19551 ft | 203 kts | 24° |
| 2026-04-22 02:50 | 39.08053 | -77.25787 | 19893 ft | 203 kts | 24° |
| 2026-04-22 02:50 | 39.09232 | -77.24780 | 20241 ft | 203 kts | 23° |
| 2026-04-22 02:50 | 39.10404 | -77.23778 | 20581 ft | 202 kts | 23° |
| 2026-04-22 02:50 | 39.11578 | -77.22775 | 20946 ft | 202 kts | 23° |
| 2026-04-22 02:51 | 39.12744 | -77.21778 | 21328 ft | 201 kts | 23° |
| 2026-04-22 02:51 | 39.13853 | -77.20829 | 21683 ft | 201 kts | 23° |
| 2026-04-22 02:51 | 39.15013 | -77.19837 | 22069 ft | 201 kts | 23° |
| 2026-04-22 02:51 | 39.16192 | -77.18827 | 22461 ft | 201 kts | 23° |
| 2026-04-22 02:52 | 39.17354 | -77.17832 | 22860 ft | 200 kts | 23° |
| 2026-04-22 02:52 | 39.18514 | -77.16839 | 23262 ft | 200 kts | 23° |
| 2026-04-22 02:52 | 39.19657 | -77.15859 | 23659 ft | 200 kts | 23° |
| 2026-04-22 02:52 | 39.20815 | -77.14866 | 24036 ft | 200 kts | 23° |
| 2026-04-22 02:53 | 39.21967 | -77.13877 | 24388 ft | 199 kts | 22° |
| 2026-04-22 02:53 | 39.23117 | -77.12890 | 24735 ft | 198 kts | 22° |
| 2026-04-22 02:53 | 39.24247 | -77.11921 | 25086 ft | 198 kts | 22° |
| 2026-04-22 02:53 | 39.25390 | -77.10939 | 25446 ft | 197 kts | 22° |
| 2026-04-22 02:54 | 39.26539 | -77.09952 | 25819 ft | 196 kts | 21° |
| 2026-04-22 02:54 | 39.27702 | -77.08952 | 26201 ft | 195 kts | 21° |
| 2026-04-22 02:54 | 39.28837 | -77.07976 | 26574 ft | 195 kts | 21° |
| 2026-04-22 02:54 | 39.29964 | -77.07007 | 26954 ft | 194 kts | 20° |
| 2026-04-22 02:55 | 39.31082 | -77.06044 | 27333 ft | 193 kts | 20° |
| 2026-04-22 02:55 | 39.32182 | -77.05083 | 27722 ft | 195 kts | 24° |
| 2026-04-22 02:55 | 39.33075 | -77.03660 | 28116 ft | 217 kts | 54° |
| 2026-04-22 02:55 | 39.33437 | -77.01717 | 28486 ft | 233 kts | 78° |
| 2026-04-22 02:56 | 39.33282 | -76.99600 | 28847 ft | 242 kts | 101° |
| 2026-04-22 02:56 | 39.32685 | -76.97704 | 29209 ft | 245 kts | 115° |
| 2026-04-22 02:56 | 39.31996 | -76.95693 | 29576 ft | 245 kts | 105° |
| 2026-04-22 02:56 | 39.31522 | -76.93589 | 29956 ft | 243 kts | 99° |
| 2026-04-22 02:57 | 39.31115 | -76.91559 | 30309 ft | 244 kts | 100° |
| 2026-04-22 02:57 | 39.30640 | -76.89448 | 30640 ft | 245 kts | 102° |
| 2026-04-22 02:57 | 39.30178 | -76.87497 | 30950 ft | 245 kts | 102° |
| 2026-04-22 02:57 | 39.29722 | -76.85534 | 31251 ft | 244 kts | 101° |
| 2026-04-22 02:58 | 39.29240 | -76.83420 | 31574 ft | 244 kts | 101° |
| 2026-04-22 02:58 | 39.28755 | -76.81301 | 31883 ft | 244 kts | 102° |
| 2026-04-22 02:58 | 39.28353 | -76.79187 | 32193 ft | 239 kts | 88° |
| 2026-04-22 02:58 | 39.28406 | -76.77183 | 32502 ft | 226 kts | 66° |
| 2026-04-22 02:59 | 39.28927 | -76.75319 | 32818 ft | 213 kts | 49° |
| 2026-04-22 02:59 | 39.29568 | -76.73919 | 33065 ft | 209 kts | 42° |
| 2026-04-22 02:59 | 39.30407 | -76.72243 | 33086 ft | 228 kts | 46° |
| 2026-04-22 02:59 | 39.31210 | -76.70382 | 33131 ft | 246 kts | 51° |
| 2026-04-22 03:00 | 39.31470 | -76.69736 | 33150 ft | 251 kts | 51° |
| 2026-04-22 03:00 | 39.31911 | -76.68632 | 33182 ft | 259 kts | 51° |
| 2026-04-22 03:00 | 39.32772 | -76.66520 | 33230 ft | 272 kts | 51° |
| 2026-04-22 03:00 | 39.33661 | -76.64403 | 33283 ft | 284 kts | 51° |
| 2026-04-22 03:01 | 39.34583 | -76.62204 | 33536 ft | 287 kts | 52° |
| 2026-04-22 03:01 | 39.35534 | -76.59896 | 33968 ft | 284 kts | 52° |
| 2026-04-22 03:01 | 39.36471 | -76.57642 | 34286 ft | 284 kts | 51° |
| 2026-04-22 03:01 | 39.37412 | -76.55392 | 34556 ft | 285 kts | 52° |
| 2026-04-22 03:02 | 39.38217 | -76.53461 | 34781 ft | 285 kts | 52° |
| 2026-04-22 03:02 | 39.39157 | -76.51198 | 35023 ft | 285 kts | 52° |
| 2026-04-22 03:02 | 39.40093 | -76.48941 | 35285 ft | 285 kts | 52° |
| 2026-04-22 03:02 | 39.41033 | -76.46676 | 35520 ft | 286 kts | 52° |
| 2026-04-22 03:03 | 39.41975 | -76.44407 | 35761 ft | 286 kts | 53° |
| 2026-04-22 03:03 | 39.42917 | -76.42135 | 35994 ft | 287 kts | 53° |
| 2026-04-22 03:03 | 39.43855 | -76.39867 | 36233 ft | 286 kts | 53° |
| 2026-04-22 03:03 | 39.44772 | -76.37651 | 36458 ft | 285 kts | 53° |
| 2026-04-22 03:04 | 39.45710 | -76.35382 | 36690 ft | 286 kts | 53° |
| 2026-04-22 03:04 | 39.46344 | -76.33849 | 36845 ft | 286 kts | 54° |
| 2026-04-22 03:04 | 39.47301 | -76.31534 | 37071 ft | 286 kts | 54° |
| 2026-04-22 03:04 | 39.48234 | -76.29278 | 37204 ft | 289 kts | 54° |
| 2026-04-22 03:05 | 39.49198 | -76.26950 | 37245 ft | 296 kts | 54° |
| 2026-04-22 03:05 | 39.51173 | -76.22152 | 37276 ft | 310 kts | 55° |
| 2026-04-22 03:06 | 39.53239 | -76.17126 | 37273 ft | 324 kts | 55° |
| 2026-04-22 03:06 | 39.55339 | -76.12011 | 37268 ft | 335 kts | 56° |
| 2026-04-22 03:07 | 39.57578 | -76.06548 | 37270 ft | 346 kts | 56° |
| 2026-04-22 03:07 | 39.59867 | -76.00949 | 37276 ft | 357 kts | 56° |
| 2026-04-22 03:08 | 39.62205 | -75.95221 | 37278 ft | 365 kts | 56° |
| 2026-04-22 03:08 | 39.64474 | -75.89652 | 37287 ft | 373 kts | 56° |
| 2026-04-22 03:09 | 39.66908 | -75.83671 | 37293 ft | 379 kts | 57° |
| 2026-04-22 03:09 | 39.69398 | -75.77537 | 37293 ft | 385 kts | 57° |
| 2026-04-22 03:10 | 39.71907 | -75.71344 | 37294 ft | 389 kts | 57° |
| 2026-04-22 03:10 | 39.74296 | -75.65434 | 37290 ft | 392 kts | 57° |
| 2026-04-22 03:11 | 39.76841 | -75.59130 | 37293 ft | 394 kts | 57° |
| 2026-04-22 03:11 | 39.79392 | -75.52794 | 37294 ft | 396 kts | 57° |
| 2026-04-22 03:12 | 39.81885 | -75.46590 | 37294 ft | 398 kts | 57° |
| 2026-04-22 03:12 | 39.85682 | -75.37119 | 37311 ft | 399 kts | 57° |
| 2026-04-22 03:13 | 39.88248 | -75.30701 | 37311 ft | 400 kts | 57° |
| 2026-04-22 03:13 | 39.90640 | -75.24703 | 37314 ft | 400 kts | 57° |
| 2026-04-22 03:14 | 39.93259 | -75.18127 | 37314 ft | 400 kts | 57° |
| 2026-04-22 03:14 | 39.95594 | -75.12250 | 37311 ft | 401 kts | 57° |
| 2026-04-22 03:15 | 39.98065 | -75.06020 | 37324 ft | 401 kts | 57° |
| 2026-04-22 03:15 | 40.00152 | -75.00746 | 37322 ft | 401 kts | 57° |
| 2026-04-22 03:16 | 40.02441 | -74.94951 | 37326 ft | 401 kts | 57° |
| 2026-04-22 03:16 | 40.04883 | -74.88759 | 37319 ft | 402 kts | 57° |
| 2026-04-22 03:17 | 40.07436 | -74.82268 | 37310 ft | 402 kts | 57° |
| 2026-04-22 03:17 | 40.09916 | -74.75951 | 37315 ft | 402 kts | 57° |
| 2026-04-22 03:18 | 40.12468 | -74.69435 | 37323 ft | 402 kts | 57° |
| 2026-04-22 03:18 | 40.15015 | -74.62920 | 37321 ft | 402 kts | 58° |
| 2026-04-22 03:19 | 40.17554 | -74.56410 | 37320 ft | 402 kts | 58° |
| 2026-04-22 03:19 | 40.20075 | -74.49869 | 37318 ft | 404 kts | 60° |
| 2026-04-22 03:20 | 40.21927 | -74.43072 | 37317 ft | 408 kts | 66° |
| 2026-04-22 03:20 | 40.23809 | -74.36019 | 37318 ft | 408 kts | 66° |
| 2026-04-22 03:21 | 40.25639 | -74.29023 | 37320 ft | 409 kts | 66° |
| 2026-04-22 03:21 | 40.27496 | -74.21953 | 37321 ft | 409 kts | 66° |
| 2026-04-22 03:22 | 40.29026 | -74.16103 | 37319 ft | 409 kts | 66° |
| 2026-04-22 03:22 | 40.31043 | -74.08361 | 37327 ft | 409 kts | 66° |
| 2026-04-22 03:23 | 40.32603 | -74.02373 | 37323 ft | 409 kts | 66° |
| 2026-04-22 03:23 | 40.34428 | -73.95330 | 37330 ft | 409 kts | 66° |
| 2026-04-22 03:24 | 40.36214 | -73.88443 | 37332 ft | 410 kts | 66° |
| 2026-04-22 03:24 | 40.38049 | -73.81346 | 37338 ft | 410 kts | 66° |
| 2026-04-22 03:25 | 40.39887 | -73.74212 | 37337 ft | 410 kts | 66° |
| 2026-04-22 03:25 | 40.41758 | -73.66935 | 37338 ft | 410 kts | 66° |
| 2026-04-22 03:26 | 40.43328 | -73.60810 | 37340 ft | 410 kts | 66° |
| 2026-04-22 03:26 | 40.45165 | -73.53622 | 37336 ft | 410 kts | 66° |
| 2026-04-22 03:27 | 40.46990 | -73.46447 | 37337 ft | 410 kts | 66° |
| 2026-04-22 03:27 | 40.48781 | -73.39390 | 37335 ft | 410 kts | 66° |
| 2026-04-22 03:28 | 40.50571 | -73.32315 | 37337 ft | 410 kts | 66° |
| 2026-04-22 03:28 | 40.52365 | -73.25199 | 37333 ft | 410 kts | 66° |
| 2026-04-22 03:29 | 40.54160 | -73.18065 | 37337 ft | 411 kts | 66° |
| 2026-04-22 03:29 | 40.55959 | -73.10888 | 37335 ft | 411 kts | 66° |
| 2026-04-22 03:30 | 40.57743 | -73.03750 | 37334 ft | 411 kts | 66° |
| 2026-04-22 03:30 | 40.59526 | -72.96598 | 37334 ft | 411 kts | 66° |
| 2026-04-22 03:31 | 40.61304 | -72.89443 | 37343 ft | 411 kts | 66° |
| 2026-04-22 03:31 | 40.63077 | -72.82284 | 37342 ft | 412 kts | 66° |
| 2026-04-22 03:32 | 40.64853 | -72.75095 | 37343 ft | 412 kts | 66° |
| 2026-04-22 03:32 | 40.66339 | -72.69059 | 37354 ft | 412 kts | 66° |
| 2026-04-22 03:33 | 40.68134 | -72.61751 | 37359 ft | 413 kts | 66° |
| 2026-04-22 03:33 | 40.69923 | -72.54446 | 37256 ft | 415 kts | 66° |
| 2026-04-22 03:34 | 40.70843 | -72.50695 | 36728 ft | 429 kts | 66° |
| 2026-04-22 03:34 | 40.71807 | -72.46747 | 36132 ft | 439 kts | 66° |
| 2026-04-22 03:34 | 40.72748 | -72.42843 | 35543 ft | 434 kts | 66° |
| 2026-04-22 03:34 | 40.73697 | -72.38915 | 34950 ft | 430 kts | 65° |
| 2026-04-22 03:35 | 40.74623 | -72.35119 | 34367 ft | 428 kts | 65° |
| 2026-04-22 03:35 | 40.75539 | -72.31353 | 33757 ft | 425 kts | 65° |
| 2026-04-22 03:35 | 40.76444 | -72.27599 | 33188 ft | 421 kts | 65° |
| 2026-04-22 03:35 | 40.77351 | -72.23830 | 32620 ft | 418 kts | 65° |
| 2026-04-22 03:36 | 40.78246 | -72.20149 | 32065 ft | 414 kts | 64° |
| 2026-04-22 03:36 | 40.78913 | -72.17645 | 31686 ft | 412 kts | 63° |
| 2026-04-22 03:36 | 40.79691 | -72.14736 | 31243 ft | 411 kts | 63° |
| 2026-04-22 03:36 | 40.80647 | -72.11098 | 30685 ft | 414 kts | 63° |
| 2026-04-22 03:37 | 40.81618 | -72.07391 | 30090 ft | 416 kts | 63° |
| 2026-04-22 03:37 | 40.82600 | -72.03663 | 29512 ft | 416 kts | 63° |
| 2026-04-22 03:37 | 40.83568 | -71.99987 | 28955 ft | 413 kts | 63° |
| 2026-04-22 03:37 | 40.84515 | -71.96362 | 28409 ft | 410 kts | 63° |
| 2026-04-22 03:38 | 40.85443 | -71.92816 | 27874 ft | 407 kts | 63° |
| 2026-04-22 03:38 | 40.86365 | -71.89304 | 27339 ft | 403 kts | 63° |
| 2026-04-22 03:38 | 40.87279 | -71.85811 | 26811 ft | 399 kts | 63° |
| 2026-04-22 03:38 | 40.88150 | -71.82466 | 26304 ft | 396 kts | 63° |
| 2026-04-22 03:39 | 40.89055 | -71.78992 | 25780 ft | 393 kts | 63° |
| 2026-04-22 03:39 | 40.89954 | -71.75539 | 25251 ft | 389 kts | 63° |
| 2026-04-22 03:39 | 40.90831 | -71.72173 | 24744 ft | 386 kts | 63° |
| 2026-04-22 03:39 | 40.91710 | -71.68791 | 24234 ft | 382 kts | 63° |
| 2026-04-22 03:40 | 40.92566 | -71.65485 | 23695 ft | 380 kts | 63° |
| 2026-04-22 03:40 | 40.93417 | -71.62192 | 23174 ft | 375 kts | 63° |
| 2026-04-22 03:40 | 40.94286 | -71.58886 | 22672 ft | 372 kts | 62° |
| 2026-04-22 03:40 | 40.95169 | -71.55595 | 22174 ft | 370 kts | 62° |
| 2026-04-22 03:41 | 40.96044 | -71.52297 | 21674 ft | 369 kts | 62° |
| 2026-04-22 03:41 | 40.96599 | -71.50178 | 21352 ft | 367 kts | 62° |
| 2026-04-22 03:41 | 40.97430 | -71.47009 | 20872 ft | 363 kts | 62° |
| 2026-04-22 03:41 | 40.98258 | -71.43872 | 20397 ft | 359 kts | 62° |
| 2026-04-22 03:42 | 40.99081 | -71.40759 | 19923 ft | 358 kts | 62° |
| 2026-04-22 03:42 | 40.99895 | -71.37656 | 19457 ft | 355 kts | 62° |
| 2026-04-22 03:42 | 41.00663 | -71.34554 | 18986 ft | 356 kts | 66° |
| 2026-04-22 03:42 | 41.01327 | -71.31360 | 18498 ft | 353 kts | 66° |
| 2026-04-22 03:43 | 41.02004 | -71.28249 | 18012 ft | 349 kts | 65° |
| 2026-04-22 03:43 | 41.02677 | -71.25183 | 17552 ft | 345 kts | 65° |
| 2026-04-22 03:43 | 41.03327 | -71.22140 | 17100 ft | 342 kts | 66° |
| 2026-04-22 03:43 | 41.03958 | -71.19154 | 16657 ft | 339 kts | 66° |
| 2026-04-22 03:44 | 41.04608 | -71.16114 | 16205 ft | 336 kts | 66° |
| 2026-04-22 03:44 | 41.05244 | -71.13147 | 15759 ft | 333 kts | 66° |
| 2026-04-22 03:44 | 41.05887 | -71.10158 | 15024 ft | 339 kts | 66° |
| 2026-04-22 03:44 | 41.06524 | -71.07156 | 14528 ft | 336 kts | 66° |
| 2026-04-22 03:45 | 41.07143 | -71.04206 | 14076 ft | 329 kts | 66° |
| 2026-04-22 03:45 | 41.07748 | -71.01336 | 13619 ft | 317 kts | 66° |
| 2026-04-22 03:45 | 41.08329 | -70.98606 | 13207 ft | 305 kts | 66° |
| 2026-04-22 03:45 | 41.08899 | -70.95932 | 12813 ft | 298 kts | 66° |
| 2026-04-22 03:46 | 41.09460 | -70.93301 | 12424 ft | 298 kts | 67° |
| 2026-04-22 03:46 | 41.10012 | -70.90663 | 12031 ft | 296 kts | 68° |
| 2026-04-22 03:46 | 41.10563 | -70.88044 | 11643 ft | 293 kts | 68° |
| 2026-04-22 03:46 | 41.11110 | -70.85451 | 11254 ft | 290 kts | 68° |
| 2026-04-22 03:47 | 41.11601 | -70.82873 | 10881 ft | 289 kts | 74° |
| 2026-04-22 03:47 | 41.11910 | -70.80250 | 10569 ft | 285 kts | 76° |
| 2026-04-22 03:47 | 41.12230 | -70.77668 | 10255 ft | 283 kts | 75° |
| 2026-04-22 03:47 | 41.12559 | -70.75096 | 9906 ft | 282 kts | 75° |
| 2026-04-22 03:48 | 41.12878 | -70.72531 | 9586 ft | 280 kts | 76° |
| 2026-04-22 03:48 | 41.13194 | -70.69963 | 9260 ft | 275 kts | 76° |
| 2026-04-22 03:48 | 41.13502 | -70.67492 | 8958 ft | 267 kts | 76° |
| 2026-04-22 03:48 | 41.13801 | -70.65102 | 8662 ft | 259 kts | 76° |
| 2026-04-22 03:49 | 41.14090 | -70.62770 | 8383 ft | 253 kts | 76° |
| 2026-04-22 03:49 | 41.14373 | -70.60476 | 8099 ft | 250 kts | 77° |
| 2026-04-22 03:49 | 41.14770 | -70.58264 | 7826 ft | 243 kts | 66° |
| 2026-04-22 03:49 | 41.15377 | -70.56172 | 7554 ft | 242 kts | 65° |
| 2026-04-22 03:50 | 41.15984 | -70.54094 | 7287 ft | 241 kts | 66° |
| 2026-04-22 03:50 | 41.16568 | -70.52013 | 7024 ft | 240 kts | 67° |
| 2026-04-22 03:50 | 41.17145 | -70.49948 | 6749 ft | 238 kts | 67° |
| 2026-04-22 03:50 | 41.17721 | -70.47897 | 6466 ft | 235 kts | 67° |
| 2026-04-22 03:51 | 41.18285 | -70.45884 | 6216 ft | 228 kts | 67° |
| 2026-04-22 03:51 | 41.18830 | -70.43946 | 5965 ft | 223 kts | 67° |
| 2026-04-22 03:51 | 41.19357 | -70.42005 | 5718 ft | 223 kts | 72° |
| 2026-04-22 03:51 | 41.19452 | -70.39957 | 5475 ft | 221 kts | 89° |
| 2026-04-22 03:52 | 41.19387 | -70.37947 | 5245 ft | 215 kts | 90° |
| 2026-04-22 03:52 | 41.19342 | -70.35953 | 5004 ft | 212 kts | 90° |
| 2026-04-22 03:52 | 41.18927 | -70.34109 | 4764 ft | 211 kts | 124° |
| 2026-04-22 03:52 | 41.17919 | -70.32671 | 4523 ft | 207 kts | 135° |
| 2026-04-22 03:53 | 41.16878 | -70.31334 | 4302 ft | 197 kts | 135° |
| 2026-04-22 03:53 | 41.16076 | -70.30277 | 4125 ft | 189 kts | 135° |
| 2026-04-22 03:53 | 41.15151 | -70.29035 | 3914 ft | 190 kts | 135° |
| 2026-04-22 03:53 | 41.14226 | -70.27799 | 3703 ft | 187 kts | 135° |
| 2026-04-22 03:54 | 41.13626 | -70.27001 | 3566 ft | 184 kts | 136° |
| 2026-04-22 03:54 | 41.12994 | -70.25948 | 3399 ft | 179 kts | 118° |
| 2026-04-22 03:54 | 41.12730 | -70.24382 | 3213 ft | 170 kts | 89° |
| 2026-04-22 03:54 | 41.12987 | -70.22974 | 3033 ft | 149 kts | 63° |
| 2026-04-22 03:55 | 41.13576 | -70.21932 | 2870 ft | 136 kts | 42° |
| 2026-04-22 03:55 | 41.14252 | -70.21071 | 2719 ft | 135 kts | 43° |
| 2026-04-22 03:55 | 41.14924 | -70.20189 | 2572 ft | 136 kts | 44° |
| 2026-04-22 03:55 | 41.15600 | -70.19298 | 2423 ft | 137 kts | 45° |
| 2026-04-22 03:56 | 41.16273 | -70.18408 | 2271 ft | 136 kts | 45° |
| 2026-04-22 03:56 | 41.16951 | -70.17511 | 2114 ft | 135 kts | 45° |
| 2026-04-22 03:56 | 41.17612 | -70.16636 | 1973 ft | 133 kts | 46° |
| 2026-04-22 03:56 | 41.18270 | -70.15766 | 1818 ft | 133 kts | 45° |
| 2026-04-22 03:57 | 41.18923 | -70.14903 | 1673 ft | 132 kts | 46° |
| 2026-04-22 03:57 | 41.19569 | -70.14051 | 1574 ft | 133 kts | 46° |
| 2026-04-22 03:57 | 41.20234 | -70.13171 | 1406 ft | 137 kts | 46° |
| 2026-04-22 03:57 | 41.20913 | -70.12270 | 1216 ft | 138 kts | 46° |
| 2026-04-22 03:58 | 41.21588 | -70.11374 | 1010 ft | 135 kts | 47° |
| 2026-04-22 03:58 | 41.22205 | -70.10557 | 814 ft | 128 kts | 47° |
| 2026-04-22 03:58 | 41.22562 | -70.10084 | 712 ft | 126 kts | 47° |
| 2026-04-22 03:58 | 41.23391 | -70.08988 | 481 ft | 131 kts | 47° |
| 2026-04-22 03:59 | 41.23994 | -70.08191 | 306 ft | 129 kts | 47° |
| 2026-04-22 03:59 | 41.24449 | -70.07585 | 179 ft | 125 kts | 47° |
| 2026-04-22 03:59 | 41.25022 | -70.06821 | 43 ft | 108 kts | 49° |
| 2026-04-22 03:59 | 41.25440 | -70.06266 | 43 ft | 63 kts | 45° |
| 2026-04-22 04:00 | 41.25564 | -70.06105 | 46 ft | 14 kts | 38° |
| 2026-04-22 04:00 | 41.25648 | -70.06151 | 46 ft | 1 kts | 313° |
| 2026-04-22 04:01 | 41.25652 | -70.06158 | 46 ft | 3 kts | 304° |
| 2026-04-22 04:02 | 41.25654 | -70.06187 | 46 ft | 6 kts | 247° |
| 2026-04-22 04:02 | 41.25629 | -70.06221 | 45 ft | 10 kts | 223° |
| 2026-04-22 04:02 | 41.25565 | -70.06304 | 44 ft | 11 kts | 226° |
| 2026-04-22 04:02 | 41.25574 | -70.06387 | 44 ft | 12 kts | 309° |
| 2026-04-22 04:03 | 41.25589 | -70.06467 | 44 ft | 8 kts | 221° |
| 2026-04-22 04:03 | 41.25574 | -70.06473 | 44 ft | 0 kts | 175° |